Time;durP1;ratioP1;P1;durP2;ratioP2;P2;SDS_P1;SDS_P2;PMS_P1;PMS_P2;Temp;Humidity;BMP_temperature;BMP_pressure;BME280_temperature;BME280_humidity;BME280_pressure;Samples;Min_cycle;Max_cycle;Signal;HPM_P1;HPM_P2
2024/01/14 00:01:17;;;;;;;75.75;29.83;;;;;;;1.85;100.00;101571.41;5015006;28;20474;-87
2024/01/14 00:03:42;;;;;;;64.22;26.08;;;;;;;1.82;100.00;101560.78;5015922;28;20437;-87
2024/01/14 00:06:07;;;;;;;67.28;27.38;;;;;;;1.74;100.00;101555.13;5015175;28;20053;-87
2024/01/14 00:08:33;;;;;;;71.22;28.88;;;;;;;1.79;100.00;101571.94;5014745;28;20042;-86
2024/01/14 00:10:58;;;;;;;79.95;29.90;;;;;;;1.74;100.00;101555.13;5014966;28;20065;-87
2024/01/14 00:13:24;;;;;;;78.07;30.13;;;;;;;1.79;100.00;101569.31;5014845;28;20050;-86
2024/01/14 00:15:49;;;;;;;74.32;29.20;;;;;;;1.82;100.00;101571.22;5014751;28;20470;-87
2024/01/14 00:18:14;;;;;;;73.40;28.08;;;;;;;1.82;100.00;101566.00;5014906;28;20046;-85
2024/01/14 00:20:40;;;;;;;70.35;28.15;;;;;;;1.82;100.00;101559.09;5015918;28;20038;-87
2024/01/14 00:23:05;;;;;;;74.85;27.80;;;;;;;1.84;100.00;101566.97;5015929;28;20489;-87
2024/01/14 00:25:31;;;;;;;73.43;28.50;;;;;;;1.84;100.00;101567.91;4998168;28;20133;-86
2024/01/14 00:27:56;;;;;;;71.72;26.70;;;;;;;1.83;100.00;101565.19;5014706;28;20064;-86
2024/01/14 00:30:22;;;;;;;77.38;28.23;;;;;;;1.85;100.00;101563.59;4998249;28;20034;-85
2024/01/14 00:32:47;;;;;;;78.00;27.85;;;;;;;1.85;100.00;101560.97;5015271;28;20045;-88
2024/01/14 00:35:13;;;;;;;73.53;28.10;;;;;;;1.87;100.00;101556.75;4998773;28;20053;-87
2024/01/14 00:37:38;;;;;;;70.65;26.00;;;;;;;1.85;100.00;101540.13;5014938;28;20041;-87
2024/01/14 00:40:13;;;;;;;70.63;26.52;;;;;;;1.85;100.00;101538.44;5014941;28;20037;-87
2024/01/14 00:42:38;;;;;;;86.95;33.15;;;;;;;1.84;100.00;101526.22;5014914;28;20041;-86
2024/01/14 00:45:04;;;;;;;71.15;27.10;;;;;;;1.78;100.00;101511.94;5015821;28;20391;-88
2024/01/14 00:47:30;;;;;;;65.22;25.55;;;;;;;1.82;100.00;101516.50;4982279;28;20056;-88
2024/01/14 00:49:59;;;;;;;70.18;27.00;;;;;;;1.85;100.00;101530.59;4999245;28;20376;-88
2024/01/14 00:52:24;;;;;;;71.20;25.92;;;;;;;1.85;100.00;101534.94;5019622;28;20037;-87
2024/01/14 00:54:50;;;;;;;72.05;27.27;;;;;;;1.87;100.00;101528.06;5038963;28;20050;-85
2024/01/14 00:57:15;;;;;;;68.22;26.75;;;;;;;1.88;100.00;101527.25;5038499;28;20046;-87
2024/01/14 00:59:40;;;;;;;69.68;26.38;;;;;;;1.91;100.00;101517.00;5022571;28;20048;-87
2024/01/14 01:02:06;;;;;;;66.90;25.80;;;;;;;1.90;100.00;101513.50;5022495;28;20044;-89
2024/01/14 01:04:31;;;;;;;64.80;24.02;;;;;;;1.94;100.00;101514.59;5038778;28;20020;-90
2024/01/14 01:06:57;;;;;;;81.85;29.70;;;;;;;1.93;100.00;101512.81;5038139;28;20038;-86
2024/01/14 01:09:22;;;;;;;67.70;25.60;;;;;;;1.94;100.00;101506.78;5036437;28;20442;-87
2024/01/14 01:11:48;;;;;;;68.75;26.27;;;;;;;1.95;100.00;101495.53;5033509;28;20038;-86
2024/01/14 01:14:14;;;;;;;73.70;26.73;;;;;;;1.97;100.00;101502.63;5066197;28;20056;-85
2024/01/14 01:16:40;;;;;;;71.72;25.77;;;;;;;1.98;100.00;101500.91;5052200;28;20047;-87
2024/01/14 01:19:06;;;;;;;68.38;26.23;;;;;;;1.98;100.00;101500.91;5068893;28;20029;-87
2024/01/14 01:21:31;;;;;;;75.00;26.65;;;;;;;2.02;100.00;101497.69;5048617;28;20115;-87
2024/01/14 01:23:57;;;;;;;74.80;27.95;;;;;;;2.03;100.00;101504.69;5038141;28;20043;-87
2024/01/14 01:26:23;;;;;;;68.65;26.00;;;;;;;2.04;100.00;101496.03;5037028;28;20037;-87
2024/01/14 01:28:48;;;;;;;66.75;27.77;;;;;;;2.04;100.00;101489.94;5054511;28;20483;-87
2024/01/14 01:31:13;;;;;;;68.15;27.40;;;;;;;2.07;100.00;101508.34;5037133;28;20067;-87
2024/01/14 01:33:39;;;;;;;70.90;26.52;;;;;;;2.07;100.00;101504.03;5020349;28;20033;-87
2024/01/14 01:36:06;;;;;;;67.43;26.33;;;;;;;2.07;100.00;101514.47;5036644;28;20469;-87
2024/01/14 01:38:31;;;;;;;69.22;26.33;;;;;;;2.10;100.00;101498.06;5037319;28;20036;-87
2024/01/14 01:40:57;;;;;;;63.78;25.65;;;;;;;2.09;100.00;101498.91;5020620;28;20488;-87
2024/01/14 01:43:22;;;;;;;74.55;27.85;;;;;;;2.07;100.00;101488.41;5036727;28;20131;-87
2024/01/14 01:45:48;;;;;;;63.25;26.08;;;;;;;2.08;100.00;101487.56;5054230;28;20029;-87
2024/01/14 01:48:13;;;;;;;70.80;26.63;;;;;;;2.06;100.00;101480.50;5054459;28;20035;-87
2024/01/14 01:50:40;;;;;;;62.38;23.85;;;;;;;2.04;100.00;101483.00;5054599;28;20091;-88
2024/01/14 01:53:06;;;;;;;59.85;25.52;;;;;;;1.98;100.00;101475.75;5054314;28;20115;-88
2024/01/14 01:55:31;;;;;;;56.42;23.77;;;;;;;1.97;100.00;101467.81;5020227;28;20362;-88
2024/01/14 01:57:57;;;;;;;65.25;26.20;;;;;;;1.98;100.00;101470.53;5036491;28;20036;-87
2024/01/14 02:00:23;;;;;;;70.03;26.08;;;;;;;1.92;100.00;101470.19;5036504;28;20105;-87
2024/01/14 02:02:49;;;;;;;69.57;27.25;;;;;;;1.92;100.00;101477.09;5036189;28;20033;-88
2024/01/14 02:05:17;;;;;;;64.93;26.40;;;;;;;1.91;100.00;101472.72;5054222;28;20059;-87
2024/01/14 02:07:45;;;;;;;67.90;27.20;;;;;;;1.89;100.00;101470.03;5053811;28;20064;-88
2024/01/14 02:10:10;;;;;;;61.88;26.88;;;;;;;1.89;100.00;101467.44;5020059;28;20037;-87
2024/01/14 02:12:36;;;;;;;66.35;26.65;;;;;;;1.88;100.00;101470.81;5054482;28;20098;-87
2024/01/14 02:15:01;;;;;;;62.55;25.45;;;;;;;1.87;100.00;101460.31;5054176;28;20102;-87
2024/01/14 02:17:27;;;;;;;63.00;25.08;;;;;;;1.89;100.00;101459.63;5053235;28;20454;-87
2024/01/14 02:19:52;;;;;;;63.40;24.35;;;;;;;1.91;100.00;101459.69;5019490;28;20029;-87
2024/01/14 02:22:29;;;;;;;70.13;27.27;;;;;;;1.85;100.00;101452.44;5035893;28;20033;-88
2024/01/14 02:24:55;;;;;;;64.38;26.20;;;;;;;1.77;100.00;101442.41;5053872;28;20511;-88
2024/01/14 02:27:22;;;;;;;64.60;24.58;;;;;;;1.82;100.00;101456.56;5019457;28;20036;-87
2024/01/14 02:29:48;;;;;;;66.57;26.30;;;;;;;1.91;100.00;101468.41;5035903;28;20031;-88
2024/01/14 02:32:13;;;;;;;60.60;25.65;;;;;;;1.89;100.00;101461.31;5053858;28;20037;-87
2024/01/14 02:34:38;;;;;;;59.78;23.77;;;;;;;1.88;100.00;101451.69;5019192;28;20389;-88
2024/01/14 02:37:04;;;;;;;64.45;25.75;;;;;;;1.88;100.00;101454.28;5053673;28;20143;-89
2024/01/14 02:39:29;;;;;;;65.30;25.23;;;;;;;1.86;100.00;101443.81;5036264;28;20440;-89
2024/01/14 02:41:55;;;;;;;66.95;27.67;;;;;;;1.86;100.00;101449.00;5035684;28;20029;-88
2024/01/14 02:44:20;;;;;;;70.13;26.88;;;;;;;1.83;100.00;101441.00;5035704;28;20075;-88
2024/01/14 02:46:46;;;;;;;60.53;25.85;;;;;;;1.87;100.00;101437.78;5053432;28;20032;-88
2024/01/14 02:49:11;;;;;;;67.50;27.60;;;;;;;1.86;100.00;101435.97;5035439;28;20033;-87
2024/01/14 02:51:37;;;;;;;61.00;26.60;;;;;;;1.86;100.00;101416.84;5035957;28;20456;-87
2024/01/14 02:54:02;;;;;;;68.47;26.88;;;;;;;1.87;100.00;101414.31;5035697;28;20075;-88
2024/01/14 02:56:28;;;;;;;64.70;26.05;;;;;;;1.83;100.00;101398.44;5019275;28;20033;-87
2024/01/14 02:58:53;;;;;;;75.25;28.52;;;;;;;1.82;100.00;101407.97;5035467;28;20087;-88
2024/01/14 03:01:19;;;;;;;64.97;26.67;;;;;;;1.82;100.00;101405.34;5035465;28;20041;-88
2024/01/14 03:03:46;;;;;;;70.35;27.92;;;;;;;1.85;100.00;101407.25;5035254;28;20136;-88
2024/01/14 03:06:12;;;;;;;66.80;27.42;;;;;;;1.78;100.00;101398.19;5035473;28;20033;-88
2024/01/14 03:08:38;;;;;;;75.03;28.45;;;;;;;1.78;100.00;101392.06;5035382;28;20182;-89
2024/01/14 03:11:04;;;;;;;67.80;27.35;;;;;;;1.73;100.00;101390.13;5035171;28;20033;-88
2024/01/14 03:13:30;;;;;;;71.00;25.98;;;;;;;1.77;100.00;101395.50;5018797;28;20053;-89
2024/01/14 03:15:55;;;;;;;65.97;25.90;;;;;;;1.77;100.00;101385.09;5053446;28;20497;-89
2024/01/14 03:18:23;;;;;;;61.13;26.75;;;;;;;1.79;100.00;101388.66;5053267;28;20072;-89
2024/01/14 03:20:48;;;;;;;64.70;25.45;;;;;;;1.71;100.00;101378.72;5052986;28;20033;-89
2024/01/14 03:23:14;;;;;;;60.80;25.55;;;;;;;1.74;100.00;101375.38;5035184;28;20043;-88
2024/01/14 03:25:39;;;;;;;54.42;25.02;;;;;;;1.79;100.00;101391.25;5053191;28;20060;-88
2024/01/14 03:28:05;;;;;;;52.10;22.27;;;;;;;1.69;100.00;101369.91;5053515;28;20037;-88
2024/01/14 03:30:30;;;;;;;59.75;24.35;;;;;;;1.75;100.00;101379.75;5022620;28;20118;-89
2024/01/14 03:32:55;;;;;;;53.00;22.42;;;;;;;1.70;100.00;101365.59;5057057;28;20432;-89
2024/01/14 03:35:21;;;;;;;58.95;23.92;;;;;;;1.76;100.00;101371.16;5057036;28;20036;-88
2024/01/14 03:37:46;;;;;;;59.50;24.40;;;;;;;1.75;100.00;101369.34;5038725;28;20063;-88
2024/01/14 03:40:12;;;;;;;59.38;24.77;;;;;;;1.77;100.00;101377.25;5039135;28;20455;-88
2024/01/14 03:42:37;;;;;;;60.10;24.08;;;;;;;1.73;100.00;101368.38;5056776;28;20032;-88
2024/01/14 03:45:04;;;;;;;62.10;25.08;;;;;;;1.73;100.00;101371.00;5056649;28;20036;-88
2024/01/14 03:47:29;;;;;;;65.10;27.02;;;;;;;1.73;100.00;101369.28;5038827;28;20029;-87
2024/01/14 03:49:55;;;;;;;57.33;23.67;;;;;;;1.69;100.00;101353.41;5022141;28;20033;-88
2024/01/14 03:52:20;;;;;;;61.45;24.83;;;;;;;1.70;100.00;101356.06;5038687;28;20071;-87
2024/01/14 03:54:46;;;;;;;60.88;23.88;;;;;;;1.67;100.00;101357.59;5022343;28;20551;-87
2024/01/14 03:57:11;;;;;;;54.67;21.95;;;;;;;1.72;100.00;101354.47;5038930;28;20033;-87
2024/01/14 03:59:38;;;;;;;55.97;23.50;;;;;;;1.73;100.00;101358.84;5038739;28;20059;-87
2024/01/14 04:02:04;;;;;;;52.38;22.77;;;;;;;1.69;100.00;101353.41;5038763;28;20095;-89
2024/01/14 04:04:29;;;;;;;55.50;22.98;;;;;;;1.73;100.00;101355.34;5056357;28;20481;-90
2024/01/14 04:06:57;;;;;;;50.10;22.10;;;;;;;1.70;100.00;101353.47;5056292;28;20350;-88
2024/01/14 04:09:22;;;;;;;55.38;25.30;;;;;;;1.68;100.00;101344.69;5056312;28;20037;-87
2024/01/14 04:11:48;;;;;;;55.45;22.25;;;;;;;1.72;100.00;101357.06;5038454;28;20542;-87
2024/01/14 04:14:13;;;;;;;48.60;20.70;;;;;;;1.65;100.00;101331.50;5038286;28;20056;-87
2024/01/14 04:16:40;;;;;;;50.95;22.65;;;;;;;1.71;100.00;101341.34;5038294;28;20482;-87
2024/01/14 04:19:06;;;;;;;59.17;24.13;;;;;;;1.66;100.00;101330.66;5038384;28;20033;-89
2024/01/14 04:21:32;;;;;;;54.67;22.38;;;;;;;1.63;100.00;101330.53;5055977;28;20057;-87
2024/01/14 04:24:04;;;;;;;56.83;23.23;;;;;;;1.71;100.00;101333.53;5056078;28;20061;-87
2024/01/14 04:26:30;;;;;;;60.05;24.50;;;;;;;1.68;100.00;101334.28;5038071;28;20098;-89
2024/01/14 04:28:56;;;;;;;58.78;23.50;;;;;;;1.70;100.00;101336.94;5056118;28;20115;-88
2024/01/14 04:31:21;;;;;;;51.70;21.85;;;;;;;1.71;100.00;101350.06;5055596;28;20037;-88
2024/01/14 04:33:47;;;;;;;49.10;22.48;;;;;;;1.71;100.00;101339.66;5056061;28;20480;-88
2024/01/14 04:36:14;;;;;;;56.88;23.17;;;;;;;1.68;100.00;101339.47;5038033;28;20029;-88
2024/01/14 04:38:40;;;;;;;50.75;21.85;;;;;;;1.66;100.00;101337.59;5021110;28;20047;-88
2024/01/14 04:41:05;;;;;;;52.80;22.75;;;;;;;1.65;100.00;101335.81;5055134;28;20029;-89
2024/01/14 04:43:31;;;;;;;51.78;22.38;;;;;;;1.67;100.00;101337.69;5021286;28;20124;-88
2024/01/14 04:45:56;;;;;;;54.03;22.90;;;;;;;1.64;100.00;101329.72;5037896;28;20470;-88
2024/01/14 04:48:22;;;;;;;51.70;21.73;;;;;;;1.58;100.00;101312.84;5038078;28;20044;-87
2024/01/14 04:50:48;;;;;;;49.67;21.08;;;;;;;1.61;100.00;101320.81;5055418;28;20094;-88
2024/01/14 04:53:14;;;;;;;44.90;19.45;;;;;;;1.63;100.00;101319.22;5037512;28;20041;-88
2024/01/14 04:55:39;;;;;;;52.05;21.50;;;;;;;1.62;100.00;101314.78;5037618;28;20385;-88
2024/01/14 04:58:04;;;;;;;46.15;19.73;;;;;;;1.60;100.00;101313.84;5037456;28;20033;-88
2024/01/14 05:00:30;;;;;;;48.17;21.02;;;;;;;1.53;100.00;101304.78;5020768;28;20044;-88
2024/01/14 05:02:56;;;;;;;46.10;20.13;;;;;;;1.56;100.00;101312.75;5053825;28;20033;-88
2024/01/14 05:05:21;;;;;;;45.20;18.10;;;;;;;1.53;100.00;101302.16;5055156;28;20122;-87
2024/01/14 05:07:47;;;;;;;44.05;18.05;;;;;;;1.56;100.00;101298.84;5037211;28;20037;-87
2024/01/14 05:10:12;;;;;;;43.28;18.63;;;;;;;1.55;100.00;101297.97;5054993;28;20035;-87
2024/01/14 05:12:38;;;;;;;40.50;18.25;;;;;;;1.48;100.00;101295.81;5055177;28;20033;-87
2024/01/14 05:15:04;;;;;;;39.95;18.08;;;;;;;1.38;100.00;101277.91;5036945;28;20167;-87
2024/01/14 05:17:29;;;;;;;38.20;16.38;;;;;;;1.44;100.00;101286.94;5055038;28;20430;-88
2024/01/14 05:19:54;;;;;;;40.05;17.20;;;;;;;1.50;100.00;101297.72;5054651;28;20049;-88
2024/01/14 05:22:20;;;;;;;38.15;17.65;;;;;;;1.51;100.00;101296.00;5054681;28;20100;-87
2024/01/14 05:24:46;;;;;;;36.60;16.92;;;;;;;1.49;100.00;101301.09;5037047;28;20029;-88
2024/01/14 05:27:12;;;;;;;37.05;17.30;;;;;;;1.47;100.00;101294.03;5054820;28;20128;-88
2024/01/14 05:29:41;;;;;;;36.92;17.73;;;;;;;1.39;100.00;101288.41;5037135;28;20037;-88
2024/01/14 05:32:16;;;;;;;35.13;16.40;;;;;;;1.42;100.00;101295.50;5037136;28;20037;-89
2024/01/14 05:34:43;;;;;;;39.92;17.42;;;;;;;1.41;100.00;101284.19;5054630;28;20027;-88
2024/01/14 05:37:08;;;;;;;39.17;18.35;;;;;;;1.34;100.00;101275.97;5054420;28;20531;-87
2024/01/14 05:39:34;;;;;;;40.13;17.42;;;;;;;1.41;100.00;101279.00;5037069;28;20029;-87
2024/01/14 05:41:59;;;;;;;38.83;17.00;;;;;;;1.39;100.00;101267.56;5036603;28;20416;-88
2024/01/14 05:44:25;;;;;;;43.67;18.17;;;;;;;1.31;100.00;101265.38;5036471;28;20445;-88
2024/01/14 05:46:51;;;;;;;39.30;17.88;;;;;;;1.33;100.00;101271.53;5019959;28;20033;-87
2024/01/14 05:49:17;;;;;;;41.13;17.75;;;;;;;1.25;100.00;101261.63;5036732;28;20466;-89
2024/01/14 05:51:42;;;;;;;38.35;18.33;;;;;;;1.34;100.00;101278.56;5019061;28;20035;-89
2024/01/14 05:54:08;;;;;;;42.30;18.05;;;;;;;1.33;100.00;101264.66;5036493;28;20385;-88
2024/01/14 05:56:34;;;;;;;39.08;18.00;;;;;;;1.23;100.00;101241.53;5054494;28;20127;-88
2024/01/14 05:59:00;;;;;;;46.20;18.77;;;;;;;1.33;100.00;101261.13;5054255;28;20053;-87
2024/01/14 06:01:27;;;;;;;43.58;18.98;;;;;;;1.26;100.00;101246.91;5054168;28;20052;-87
2024/01/14 06:03:52;;;;;;;46.28;18.90;;;;;;;1.27;100.00;101256.50;5035903;28;20446;-88
2024/01/14 06:06:18;;;;;;;45.70;17.80;;;;;;;1.30;100.00;101254.06;5036190;28;20056;-88
2024/01/14 06:08:44;;;;;;;44.72;18.25;;;;;;;1.26;100.00;101249.50;5054034;28;20033;-88
2024/01/14 06:11:10;;;;;;;45.03;19.15;;;;;;;1.29;100.00;101248.78;5053934;28;20120;-88
2024/01/14 06:13:35;;;;;;;47.78;19.10;;;;;;;1.28;100.00;101244.38;5036052;28;20041;-88
2024/01/14 06:16:01;;;;;;;47.47;18.95;;;;;;;1.24;100.00;101231.22;5035711;28;20064;-87
2024/01/14 06:18:28;;;;;;;43.78;18.45;;;;;;;1.25;100.00;101227.78;5053607;28;20103;-87
2024/01/14 06:20:55;;;;;;;43.90;18.73;;;;;;;1.22;100.00;101222.41;5035893;28;20130;-88
2024/01/14 06:23:21;;;;;;;47.90;19.08;;;;;;;1.32;100.00;101241.13;5035758;28;20060;-87
2024/01/14 06:25:47;;;;;;;38.13;17.55;;;;;;;1.23;100.00;101224.19;5053846;28;20516;-88
2024/01/14 06:28:15;;;;;;;46.72;20.00;;;;;;;1.29;100.00;101222.75;5036061;28;20033;-88
2024/01/14 06:30:40;;;;;;;47.20;19.65;;;;;;;1.26;100.00;101220.88;5053397;28;20029;-88
2024/01/14 06:33:05;;;;;;;42.17;17.13;;;;;;;1.30;100.00;101216.72;5019371;28;20044;-90
2024/01/14 06:35:31;;;;;;;42.60;16.58;;;;;;;1.29;100.00;101217.56;5035925;28;20437;-88
2024/01/14 06:37:56;;;;;;;44.88;18.85;;;;;;;1.28;100.00;101218.34;5035543;28;20504;-88
2024/01/14 06:40:21;;;;;;;41.75;18.23;;;;;;;1.25;100.00;101211.28;5036312;28;20043;-88
2024/01/14 06:42:47;;;;;;;43.08;17.33;;;;;;;1.21;100.00;101211.91;5035852;28;20424;-88
2024/01/14 06:45:13;;;;;;;40.20;18.27;;;;;;;1.24;100.00;101214.66;5035483;28;20029;-87
2024/01/14 06:47:39;;;;;;;43.65;18.25;;;;;;;1.24;100.00;101214.66;5053403;28;20032;-88
2024/01/14 06:50:05;;;;;;;36.80;16.25;;;;;;;1.24;100.00;101205.19;5053336;28;20122;-88
2024/01/14 06:52:30;;;;;;;43.65;18.27;;;;;;;1.27;100.00;101206.13;5035871;28;20045;-89
2024/01/14 06:54:56;;;;;;;37.97;16.52;;;;;;;1.16;100.00;101189.97;5053232;28;20043;-88
2024/01/14 06:57:22;;;;;;;40.13;16.38;;;;;;;1.20;100.00;101198.03;5035248;28;20067;-88
2024/01/14 06:59:48;;;;;;;43.53;18.55;;;;;;;1.18;100.00;101186.63;5035377;28;20029;-88
2024/01/14 07:02:13;;;;;;;39.95;19.20;;;;;;;1.17;100.00;101177.03;5002376;28;20033;-88
2024/01/14 07:04:39;;;;;;;38.05;16.67;;;;;;;1.24;100.00;101196.44;5053439;28;20032;-88
2024/01/14 07:07:05;;;;;;;41.70;18.17;;;;;;;1.26;100.00;101200.03;5052903;28;20029;-90
2024/01/14 07:09:30;;;;;;;45.15;18.02;;;;;;;1.17;100.00;101186.53;5035321;28;20056;-89
2024/01/14 07:11:56;;;;;;;40.42;17.00;;;;;;;1.22;100.00;101198.97;5019060;28;20028;-89
2024/01/14 07:14:22;;;;;;;41.90;17.33;;;;;;;1.22;100.00;101188.56;5034812;28;20385;-89
2024/01/14 07:16:48;;;;;;;39.28;18.00;;;;;;;1.22;100.00;101190.28;5053017;28;20033;-89
2024/01/14 07:19:15;;;;;;;42.05;18.63;;;;;;;1.21;100.00;101183.28;5035074;28;20424;-88
2024/01/14 07:21:40;;;;;;;42.50;17.65;;;;;;;1.18;100.00;101178.81;5052971;28;20036;-88
2024/01/14 07:24:06;;;;;;;37.03;16.55;;;;;;;1.13;100.00;101167.25;5035242;28;20025;-88
2024/01/14 07:26:31;;;;;;;38.85;16.42;;;;;;;1.19;100.00;101191.00;5052839;28;20047;-88
2024/01/14 07:28:57;;;;;;;42.63;18.23;;;;;;;1.22;100.00;101185.06;5035459;28;20388;-88
2024/01/14 07:31:27;;;;;;;36.13;16.88;;;;;;;1.22;100.00;101198.09;5035201;28;20029;-88
2024/01/14 07:33:52;;;;;;;47.63;18.35;;;;;;;1.19;100.00;101185.78;5053088;28;20457;-87
2024/01/14 07:36:18;;;;;;;46.78;18.17;;;;;;;1.15;100.00;101182.94;5034862;28;20043;-89
2024/01/14 07:38:44;;;;;;;41.60;18.75;;;;;;;1.11;100.00;101179.28;5034981;28;20123;-88
2024/01/14 07:41:15;;;;;;;43.63;16.90;;;;;;;1.14;100.00;101191.56;5052876;28;20469;-88
2024/01/14 07:43:41;;;;;;;44.88;18.33;;;;;;;1.17;100.00;101191.75;5052509;28;20381;-87
2024/01/14 07:46:07;;;;;;;43.45;18.13;;;;;;;1.15;100.00;101183.84;5052817;28;20025;-87
2024/01/14 07:48:33;;;;;;;50.22;19.20;;;;;;;1.15;100.00;101188.16;5052885;28;20449;-88
2024/01/14 07:50:59;;;;;;;45.70;18.80;;;;;;;1.12;100.00;101188.00;5034945;28;20385;-87
2024/01/14 07:53:25;;;;;;;44.78;20.17;;;;;;;1.14;100.00;101200.28;5034873;28;20033;-87
2024/01/14 07:55:51;;;;;;;46.42;19.13;;;;;;;1.12;100.00;101188.91;5035111;28;20044;-88
2024/01/14 07:58:17;;;;;;;38.08;16.10;;;;;;;1.15;100.00;101185.53;5035264;28;20029;-91
2024/01/14 08:00:43;;;;;;;38.70;16.80;;;;;;;1.09;100.00;101175.72;5035001;28;20037;-88
2024/01/14 08:03:09;;;;;;;47.35;20.30;;;;;;;1.11;100.00;101184.47;5034652;28;20037;-87
2024/01/14 08:05:37;;;;;;;42.88;18.38;;;;;;;1.04;100.00;101171.09;5035325;28;20059;-87
2024/01/14 08:08:03;;;;;;;46.10;19.25;;;;;;;1.11;100.00;101181.88;5035357;28;20115;-88
2024/01/14 08:10:29;;;;;;;39.42;16.02;;;;;;;1.10;100.00;101176.59;5034921;28;20040;-87
2024/01/14 08:12:54;;;;;;;42.17;18.38;;;;;;;1.10;100.00;101166.19;5018294;28;20029;-88
2024/01/14 08:15:19;;;;;;;38.38;16.38;;;;;;;1.11;100.00;101180.97;5020132;28;20429;-88
2024/01/14 08:17:45;;;;;;;46.75;19.48;;;;;;;1.12;100.00;101172.41;5038011;28;20108;-87
2024/01/14 08:20:13;;;;;;;41.85;16.98;;;;;;;1.12;100.00;101170.69;5022027;28;20029;-87
2024/01/14 08:22:49;;;;;;;40.17;17.70;;;;;;;1.04;100.00;101158.97;5056109;28;20036;-88
2024/01/14 08:25:14;;;;;;;44.35;16.92;;;;;;;1.05;100.00;101165.06;5038267;28;20028;-88
2024/01/14 08:27:40;;;;;;;39.45;16.45;;;;;;;1.19;100.00;101179.69;5038282;28;20035;-88
2024/01/14 08:30:06;;;;;;;40.17;15.63;;;;;;;1.16;100.00;101169.16;5055812;28;20420;-88
2024/01/14 08:32:32;;;;;;;39.92;16.42;;;;;;;1.20;100.00;101177.19;5038567;28;20037;-87
2024/01/14 08:34:58;;;;;;;37.90;16.92;;;;;;;1.25;100.00;101185.25;5038191;28;20079;-88
2024/01/14 08:37:24;;;;;;;35.95;16.85;;;;;;;1.24;100.00;101176.53;5055594;28;20033;-88
2024/01/14 08:39:50;;;;;;;37.90;16.15;;;;;;;1.33;100.00;101180.44;5055587;28;20044;-87
2024/01/14 08:42:16;;;;;;;40.50;17.25;;;;;;;1.31;100.00;101184.66;5055440;28;20531;-86
2024/01/14 08:44:42;;;;;;;43.35;17.08;;;;;;;1.32;100.00;101176.03;5021534;28;20040;-87
2024/01/14 08:47:08;;;;;;;36.25;15.80;;;;;;;1.34;100.00;101170.13;5037531;28;20447;-88
2024/01/14 08:49:34;;;;;;;41.05;17.35;;;;;;;1.33;100.00;101159.59;5055551;28;20048;-87
2024/01/14 08:52:01;;;;;;;41.85;17.63;;;;;;;1.20;100.00;101134.63;5021179;28;20384;-86
2024/01/14 08:54:30;;;;;;;37.22;15.65;;;;;;;1.36;100.00;101171.06;5037737;28;20063;-87
2024/01/14 08:56:55;;;;;;;41.22;17.85;;;;;;;1.32;100.00;101156.09;5038518;28;20457;-89
2024/01/14 08:59:21;;;;;;;41.25;17.50;;;;;;;1.19;100.00;101138.94;5048665;28;20094;-88
2024/01/14 09:01:46;;;;;;;43.03;18.85;;;;;;;1.34;100.00;101174.44;5048075;28;20040;-87
2024/01/14 09:04:11;;;;;;;43.70;17.98;;;;;;;1.32;100.00;101168.22;5058950;28;20063;-90
2024/01/14 09:06:39;;;;;;;46.90;20.75;;;;;;;1.26;100.00;101158.41;5077205;28;20044;-92
2024/01/14 09:09:06;;;;;;;38.38;16.95;;;;;;;1.32;100.00;101165.63;5056326;28;20045;-90
2024/01/14 09:11:32;;;;;;;42.45;18.30;;;;;;;1.33;100.00;101173.53;5056557;28;20033;-91
2024/01/14 09:13:58;;;;;;;43.70;18.33;;;;;;;1.31;100.00;101166.44;5037751;28;20044;-89
2024/01/14 09:16:25;;;;;;;40.42;17.25;;;;;;;1.34;100.00;101171.81;5037086;28;20520;-88
2024/01/14 09:18:51;;;;;;;39.42;18.23;;;;;;;1.34;100.00;101166.63;5037692;28;20029;-88
2024/01/14 09:21:17;;;;;;;45.97;17.17;;;;;;;1.29;100.00;101153.34;5054862;28;20041;-88
2024/01/14 09:23:42;;;;;;;42.20;17.58;;;;;;;1.35;100.00;101166.69;5037405;28;20120;-89
2024/01/14 09:26:08;;;;;;;36.38;15.95;;;;;;;1.34;100.00;101164.00;5021020;28;20163;-90
2024/01/14 09:28:35;;;;;;;43.55;17.88;;;;;;;1.34;100.00;101161.41;5037260;28;20047;-89
2024/01/14 09:31:03;;;;;;;34.63;16.38;;;;;;;1.20;100.00;101135.56;5055176;28;20457;-91
2024/01/14 09:33:29;;;;;;;41.72;18.42;;;;;;;1.35;100.00;101148.47;5037487;28;20422;-92
2024/01/14 09:35:55;;;;;;;40.40;17.40;;;;;;;1.34;100.00;101140.59;5054653;28;20131;-90
2024/01/14 09:38:21;;;;;;;48.47;17.52;;;;;;;1.26;100.00;101121.97;4985127;28;20060;-91
2024/01/14 09:40:56;;;;;;;40.17;17.10;;;;;;;1.39;100.00;101136.50;5015116;28;20113;-90
2024/01/14 09:43:24;;;;;;;43.42;18.25;;;;;;;1.35;100.00;101129.34;4997118;28;20045;-89
2024/01/14 09:45:49;;;;;;;38.47;16.48;;;;;;;1.37;100.00;101139.03;5014571;28;20072;-88
2024/01/14 09:48:18;;;;;;;42.60;18.70;;;;;;;1.34;100.00;101123.25;5016510;28;20057;-87
2024/01/14 09:50:44;;;;;;;45.22;17.52;;;;;;;1.24;100.00;101110.56;5016184;28;20034;-86
2024/01/14 09:53:14;;;;;;;43.63;19.17;;;;;;;1.39;100.00;101137.41;5017549;28;20421;-87
2024/01/14 09:55:48;;;;;;;43.28;18.17;;;;;;;1.31;100.00;101114.38;5016419;28;20029;-91
2024/01/14 09:58:16;;;;;;;43.38;16.65;;;;;;;1.29;100.00;101097.81;5033767;28;20037;-87
2024/01/14 10:00:51;;;;;;;39.33;16.65;;;;;;;1.30;100.00;101104.78;5033521;28;20079;-88
2024/01/14 10:03:20;;;;;;;40.70;17.60;;;;;;;1.35;100.00;101105.91;5033969;28;20095;-89
2024/01/14 10:05:47;;;;;;;42.45;18.73;;;;;;;1.41;100.00;101125.38;5034134;28;20025;-90
2024/01/14 10:08:15;;;;;;;46.72;18.85;;;;;;;1.43;100.00;101121.13;5033728;28;20029;-89
2024/01/14 10:10:42;;;;;;;44.33;19.45;;;;;;;1.46;100.00;101117.78;5033848;28;20037;-90
2024/01/14 10:13:08;;;;;;;42.97;19.50;;;;;;;1.39;100.00;101100.06;5033535;28;20025;-88
2024/01/14 10:15:33;;;;;;;43.22;18.35;;;;;;;1.48;100.00;101109.22;5016001;28;20077;-89
2024/01/14 10:18:01;;;;;;;44.05;18.88;;;;;;;1.50;100.00;101105.00;5034225;28;20101;-90
2024/01/14 10:20:27;;;;;;;42.72;18.83;;;;;;;1.54;100.00;101103.44;5032526;28;20043;-89
2024/01/14 10:22:53;;;;;;;40.67;17.58;;;;;;;1.51;100.00;101087.66;5034057;28;20408;-89
2024/01/14 10:25:20;;;;;;;41.00;17.55;;;;;;;1.65;100.00;101099.66;5028207;28;20454;-90
2024/01/14 10:27:49;;;;;;;45.78;20.00;;;;;;;1.61;100.00;101102.03;5048965;28;20033;-89
2024/01/14 10:30:15;;;;;;;46.75;18.30;;;;;;;1.49;100.00;101069.34;5031823;28;20112;-88
2024/01/14 10:32:40;;;;;;;41.65;17.85;;;;;;;1.44;100.00;101055.22;5033183;28;20125;-87
2024/01/14 10:35:14;;;;;;;45.40;20.08;;;;;;;1.52;100.00;101078.16;5048250;28;20521;-90
2024/01/14 10:37:41;;;;;;;36.45;16.65;;;;;;;1.48;100.00;101064.06;5048605;28;20497;-89
2024/01/14 10:40:13;;;;;;;37.45;15.90;;;;;;;1.49;100.00;101056.31;5032069;28;20124;-92
2024/01/14 10:42:46;;;;;;;37.05;15.40;;;;;;;1.48;100.00;101058.88;5033056;28;20032;-91
2024/01/14 10:45:17;;;;;;;39.25;16.85;;;;;;;1.65;100.00;101072.72;5048734;28;20136;-93
2024/01/14 10:47:47;;;;;;;31.85;14.45;;;;;;;1.58;100.00;101058.50;5032297;28;20030;-87
2024/01/14 10:50:17;;;;;;;35.70;16.17;;;;;;;1.57;100.00;101050.63;5033206;28;20033;-87
2024/01/14 10:52:48;;;;;;;38.30;16.90;;;;;;;1.58;100.00;101044.59;5032321;28;20147;-86
2024/01/14 10:55:43;;;;;;;32.88;15.00;;;;;;;1.63;100.00;101053.53;5048582;28;20492;-86
2024/01/14 10:58:17;;;;;;;33.83;14.63;;;;;;;1.48;100.00;101027.63;5032961;28;20068;-89
2024/01/14 11:00:45;;;;;;;37.33;16.25;;;;;;;1.54;100.00;101035.72;5032871;28;20485;-91
2024/01/14 11:03:11;;;;;;;32.40;14.75;;;;;;;1.56;100.00;101030.59;5031552;28;20391;-86
2024/01/14 11:05:37;;;;;;;37.53;15.43;;;;;;;1.57;100.00;101038.50;5032692;28;20037;-86